This is the latest recevied weather packets stored in our database for station/object KM8V-8. If no packets are shown the sender has not sent any weather packets the latest 10 day(s).
| Time | Temp. | Humidity | Pressure | Rain* | Wind** | Luminosity | Snow |
|---|---|---|---|---|---|---|---|
| 1777690219 | 4.44° C | 92% | 1016.2 hPa | 1.52 mm | - | 0 W/m² | - |
| 1777689919 | 4.44° C | 91% | 1016.3 hPa | 1.52 mm | - | 0 W/m² | - |
| 1777689619 | 5° C | 91% | 1016.2 hPa | 1.27 mm | - | 0 W/m² | - |
| 1777689319 | 5° C | 90% | 1016.2 hPa | 1.27 mm | - | 0 W/m² | - |
| 1777689019 | 5° C | 90% | 1016.2 hPa | 1.02 mm | - | 0 W/m² | - |
| 1777688719 | 5° C | 89% | 1016.1 hPa | 1.02 mm | - | 0 W/m² | - |
| 1777688419 | 5.56° C | 89% | 1016.1 hPa | 1.02 mm | - | 0 W/m² | - |
| 1777688120 | 5.56° C | 89% | 1016 hPa | 0.51 mm | - | 0 W/m² | - |
| 1777687820 | 5.56° C | 89% | 1015.9 hPa | 0.25 mm | - | 0 W/m² | - |
| 1777687520 | 5.56° C | 89% | 1015.9 hPa | 0 mm | - | 0 W/m² | - |
| 1777674324 | 6.67° C | 77% | 1013.9 hPa | 0 mm | - | 133 W/m² | - |
| 1777673724 | 6.67° C | 78% | 1014 hPa | 0 mm | - | 190 W/m² | - |
| 1777673124 | 6.67° C | 79% | 1014 hPa | 0 mm | - | 161 W/m² | - |
| 1777672525 | 6.67° C | 79% | 1013.9 hPa | 0 mm | - | 140 W/m² | - |
| 1777672225 | 6.67° C | 79% | 1013.9 hPa | 0 mm | - | 163 W/m² | - |
| 1777671925 | 6.67° C | 80% | 1013.9 hPa | 0 mm | - | 176 W/m² | - |
| 1777671325 | 6.11° C | 80% | 1013.9 hPa | 0 mm | - | 180 W/m² | - |
| 1777670425 | 6.11° C | 82% | 1013.8 hPa | 0 mm | - | 214 W/m² | - |
| 1777670125 | 6.11° C | 84% | 1013.8 hPa | 0 mm | - | 217 W/m² | - |
| 1777669826 | 6.11° C | 84% | 1013.8 hPa | 0 mm | - | 228 W/m² | - |
| 1777669526 | 5.56° C | 84% | 1013.8 hPa | 0 mm | - | 182 W/m² | - |
| 1777669227 | 5.56° C | 84% | 1013.7 hPa | 0 mm | - | 143 W/m² | - |
| 1777668926 | 6.11° C | 85% | 1013.5 hPa | 0 mm | - | 142 W/m² | - |
| 1777668626 | 6.11° C | 85% | 1013.4 hPa | 0 mm | - | 167 W/m² | - |
| 1777668322 | 5.56° C | 86% | 1013.4 hPa | 0 mm | - | 211 W/m² | - |
* Rain latest hour (hover to see other rain measurements)
** Current wind speed in m/s (hover to see current wind gust speed)